< < Back
Terminal Aerodrome Forecast


Current Version              Previous Versions:   1  2  3  4  5  6  7  8  9  

Terminal Aerodrome Forecast

254
FTUS42 KJAX 260520
TAFGNV
TAF
KGNV 260520Z 2606/2706 11004KT P6SM SCT025
      TEMPO 2609/2613 3SM BR BKN015
     FM261300 12006KT P6SM BKN025
     FM261700 13008KT P6SM VCTS BKN035CB
     FM262300 12007KT P6SM SCT040 BKN250=



Latest METAR

976
SAUS70 KWBC 260800 RRG
MTRGNV
METAR KGNV 260753Z AUTO 09005KT 9SM CLR 22/21 A3017 RMK AO2 SLP214
T02220211 $


USA.gov is the U.S. government's official web portal to all federal, state and local government web resources and services.